Time;durP1;ratioP1;P1;durP2;ratioP2;P2;SDS_P1;SDS_P2;PMS_P1;PMS_P2;Temp;Humidity;BMP_temperature;BMP_pressure;BME280_temperature;BME280_humidity;BME280_pressure;Samples;Min_cycle;Max_cycle;Signal;HPM_P1;HPM_P2
2023/06/20 00:00:15;;;;;;;9.83;8.93;;;;;;;;;;4924293;29;20204;-77
2023/06/20 00:02:42;;;;;;;10.33;9.43;;;;;;;;;;4922218;29;20837;-77
2023/06/20 00:05:08;;;;;;;9.20;8.40;;;;;;;;;;4925125;29;20190;-77
2023/06/20 00:07:34;;;;;;;9.63;8.30;;;;;;;;;;4923730;29;20258;-76
2023/06/20 00:10:00;;;;;;;8.83;8.13;;;;;;;;;;4919205;29;20616;-77
2023/06/20 00:12:26;;;;;;;10.00;9.20;;;;;;;;;;4918135;29;20233;-77
2023/06/20 00:14:53;;;;;;;8.90;8.17;;;;;;;;;;4926679;29;20277;-77
2023/06/20 00:17:19;;;;;;;10.60;8.80;;;;;;;;;;4914624;29;20186;-77
2023/06/20 00:19:45;;;;;;;9.17;8.30;;;;;;;;;;4928181;29;20186;-77
2023/06/20 00:22:11;;;;;;;8.87;8.07;;;;;;;;;;4920522;29;20705;-77
2023/06/20 00:24:37;;;;;;;8.70;7.90;;;;;;;;;;4904431;29;20722;-77
2023/06/20 00:27:03;;;;;;;8.30;7.50;;;;;;;;;;4944336;29;20189;-77
2023/06/20 00:29:30;;;;;;;9.13;8.03;;;;;;;;;;4920787;29;20186;-77
2023/06/20 00:31:56;;;;;;;9.17;8.27;;;;;;;;;;4922662;29;20198;-77
2023/06/20 00:34:22;;;;;;;9.43;8.47;;;;;;;;;;4921786;29;20692;-77
2023/06/20 00:36:49;;;;;;;9.17;8.27;;;;;;;;;;4923376;29;20178;-77
2023/06/20 00:39:17;;;;;;;9.90;8.60;;;;;;;;;;4920518;29;20201;-77
2023/06/20 00:41:45;;;;;;;10.53;9.43;;;;;;;;;;4920354;29;20195;-77
2023/06/20 00:44:12;;;;;;;11.13;10.07;;;;;;;;;;4921744;29;20297;-77
2023/06/20 00:46:40;;;;;;;11.07;10.07;;;;;;;;;;4919581;29;20738;-77
2023/06/20 00:49:07;;;;;;;13.97;11.27;;;;;;;;;;4919456;29;20268;-77
2023/06/20 00:51:36;;;;;;;14.17;11.47;;;;;;;;;;4922716;29;20569;-77
2023/06/20 00:54:02;;;;;;;11.87;10.57;;;;;;;;;;4925244;29;20190;-77
2023/06/20 00:56:29;;;;;;;14.60;12.43;;;;;;;;;;4920436;29;20252;-77
2023/06/20 00:58:55;;;;;;;12.37;11.17;;;;;;;;;;4924355;29;20634;-77
2023/06/20 01:01:22;;;;;;;11.50;10.30;;;;;;;;;;4920356;29;20186;-77
2023/06/20 01:03:52;;;;;;;12.03;10.80;;;;;;;;;;4922387;29;20586;-77
2023/06/20 01:06:33;;;;;;;11.87;10.83;;;;;;;;;;4941403;29;20178;-77
2023/06/20 01:09:25;;;;;;;11.87;10.03;;;;;;;;;;4927917;29;20205;-77
2023/06/20 01:12:08;;;;;;;12.00;10.90;;;;;;;;;;4926325;29;20280;-76
2023/06/20 01:14:40;;;;;;;10.57;9.57;;;;;;;;;;4920672;29;20198;-76
2023/06/20 01:17:09;;;;;;;11.03;9.63;;;;;;;;;;4927419;29;20205;-76
2023/06/20 01:20:12;;;;;;;11.90;10.73;;;;;;;;;;4926995;29;20969;-77
2023/06/20 01:23:02;;;;;;;10.93;10.07;;;;;;;;;;4902041;29;20867;-76
2023/06/20 01:25:31;;;;;;;10.27;9.37;;;;;;;;;;4901397;29;20196;-76
2023/06/20 01:28:00;;;;;;;11.23;10.03;;;;;;;;;;4921949;29;20194;-76
2023/06/20 01:30:31;;;;;;;10.83;9.93;;;;;;;;;;4919727;29;20205;-76
2023/06/20 01:33:02;;;;;;;10.43;9.50;;;;;;;;;;4925611;29;20214;-76
2023/06/20 01:35:31;;;;;;;9.53;8.73;;;;;;;;;;4919604;29;20550;-76
2023/06/20 01:38:00;;;;;;;10.23;9.43;;;;;;;;;;4925978;29;20592;-76
2023/06/20 01:40:27;;;;;;;10.80;9.80;;;;;;;;;;4921753;29;20194;-76
2023/06/20 01:42:57;;;;;;;11.37;10.30;;;;;;;;;;4888876;29;20224;-77
2023/06/20 01:45:24;;;;;;;10.80;9.70;;;;;;;;;;4920855;29;20174;-76
2023/06/20 01:47:51;;;;;;;10.10;9.20;;;;;;;;;;4929276;29;20595;-76
2023/06/20 01:50:18;;;;;;;10.40;9.50;;;;;;;;;;4920181;29;20183;-76
2023/06/20 01:52:45;;;;;;;10.87;9.90;;;;;;;;;;4918197;29;20662;-76
2023/06/20 01:55:12;;;;;;;10.30;9.27;;;;;;;;;;4928410;29;20193;-77
2023/06/20 01:57:39;;;;;;;10.10;9.20;;;;;;;;;;4918516;29;20189;-77
2023/06/20 02:00:08;;;;;;;10.40;9.47;;;;;;;;;;4918842;29;20311;-77
2023/06/20 02:02:39;;;;;;;10.03;9.13;;;;;;;;;;4921510;29;20238;-76
2023/06/20 02:05:07;;;;;;;9.23;8.43;;;;;;;;;;4927466;29;20189;-76
2023/06/20 02:07:35;;;;;;;8.67;7.97;;;;;;;;;;4921143;29;20643;-76
2023/06/20 02:10:03;;;;;;;8.50;7.80;;;;;;;;;;4928012;29;20189;-76
2023/06/20 02:12:30;;;;;;;8.17;7.47;;;;;;;;;;4938887;29;20746;-76
2023/06/20 02:14:57;;;;;;;7.30;6.70;;;;;;;;;;4920424;29;20179;-77
2023/06/20 02:17:29;;;;;;;6.63;6.13;;;;;;;;;;4913645;29;20258;-76
2023/06/20 02:19:55;;;;;;;6.60;6.00;;;;;;;;;;4916195;29;20580;-76
2023/06/20 02:22:24;;;;;;;7.43;6.73;;;;;;;;;;4922323;29;20627;-76
2023/06/20 02:24:51;;;;;;;8.60;7.23;;;;;;;;;;4919156;29;20565;-76
2023/06/20 02:27:18;;;;;;;6.60;6.10;;;;;;;;;;4915797;29;20189;-76
2023/06/20 02:29:45;;;;;;;6.50;5.90;;;;;;;;;;4914259;29;20182;-76
2023/06/20 02:32:15;;;;;;;6.40;5.90;;;;;;;;;;4920898;29;20233;-76
2023/06/20 02:34:43;;;;;;;7.30;6.63;;;;;;;;;;4922543;29;20568;-76
2023/06/20 02:37:09;;;;;;;6.83;6.23;;;;;;;;;;4921013;29;20729;-76
2023/06/20 02:39:36;;;;;;;6.10;5.60;;;;;;;;;;4903188;29;20328;-76
2023/06/20 02:42:03;;;;;;;6.30;5.70;;;;;;;;;;4923577;29;20571;-76
2023/06/20 02:44:29;;;;;;;6.37;5.70;;;;;;;;;;4924523;29;20214;-76
2023/06/20 02:47:15;;;;;;;6.00;5.50;;;;;;;;;;4922606;29;20239;-76
2023/06/20 02:50:00;;;;;;;6.50;5.90;;;;;;;;;;4902556;29;20278;-76
2023/06/20 02:52:40;;;;;;;5.90;5.40;;;;;;;;;;4922165;29;20214;-76
2023/06/20 02:55:24;;;;;;;6.57;5.90;;;;;;;;;;4930147;29;20190;-76
2023/06/20 02:57:53;;;;;;;6.70;6.10;;;;;;;;;;4925190;29;20307;-76
2023/06/20 03:00:20;;;;;;;7.10;6.50;;;;;;;;;;4921062;29;20195;-76
2023/06/20 03:02:51;;;;;;;6.80;6.20;;;;;;;;;;4931459;29;20213;-76
2023/06/20 03:05:20;;;;;;;6.63;6.03;;;;;;;;;;4932008;29;20651;-76
2023/06/20 03:07:47;;;;;;;6.47;5.97;;;;;;;;;;4906962;29;20636;-76
2023/06/20 03:10:14;;;;;;;6.07;5.57;;;;;;;;;;4922715;29;20231;-76
2023/06/20 03:12:40;;;;;;;5.83;5.33;;;;;;;;;;4903268;29;20237;-76
2023/06/20 03:15:07;;;;;;;5.60;5.07;;;;;;;;;;4919318;29;20178;-76
2023/06/20 03:17:35;;;;;;;5.57;5.10;;;;;;;;;;4914647;29;20197;-76
2023/06/20 03:20:11;;;;;;;5.90;5.40;;;;;;;;;;4922238;29;20186;-76
2023/06/20 03:22:38;;;;;;;5.27;4.87;;;;;;;;;;4928562;29;20236;-76
2023/06/20 03:25:05;;;;;;;5.40;4.90;;;;;;;;;;4919559;29;20568;-76
2023/06/20 03:27:31;;;;;;;5.80;5.20;;;;;;;;;;4918721;29;20272;-76
2023/06/20 03:30:00;;;;;;;6.03;5.43;;;;;;;;;;4921955;29;20605;-76
2023/06/20 03:32:26;;;;;;;5.90;5.37;;;;;;;;;;4931155;29;20244;-76
2023/06/20 03:34:52;;;;;;;6.07;5.57;;;;;;;;;;4923788;29;20195;-76
2023/06/20 03:37:18;;;;;;;6.23;5.73;;;;;;;;;;4920409;29;20197;-76
2023/06/20 03:39:45;;;;;;;6.70;5.40;;;;;;;;;;4924675;29;20198;-76
2023/06/20 03:42:11;;;;;;;5.70;5.20;;;;;;;;;;4932682;29;20214;-76
2023/06/20 03:44:37;;;;;;;5.53;5.10;;;;;;;;;;4926000;29;20292;-76
2023/06/20 03:47:03;;;;;;;5.53;5.03;;;;;;;;;;4921965;29;20269;-76
2023/06/20 03:49:30;;;;;;;5.87;5.27;;;;;;;;;;4923625;29;20181;-76
2023/06/20 03:51:56;;;;;;;5.50;5.00;;;;;;;;;;4912060;29;20192;-76
2023/06/20 03:54:22;;;;;;;5.50;5.10;;;;;;;;;;4921179;29;20193;-76
2023/06/20 03:56:48;;;;;;;5.13;4.73;;;;;;;;;;4920266;29;20236;-77
2023/06/20 03:59:15;;;;;;;5.70;5.20;;;;;;;;;;4904415;29;21029;-76
2023/06/20 04:01:41;;;;;;;6.27;5.10;;;;;;;;;;4920653;29;20202;-76
2023/06/20 04:04:09;;;;;;;6.23;5.63;;;;;;;;;;4920961;29;20214;-76
2023/06/20 04:06:35;;;;;;;6.70;5.60;;;;;;;;;;4923758;29;20318;-76
2023/06/20 04:09:02;;;;;;;6.53;6.03;;;;;;;;;;4923235;29;20186;-76
2023/06/20 04:11:28;;;;;;;6.70;6.07;;;;;;;;;;4928939;29;20194;-76
2023/06/20 04:13:54;;;;;;;6.30;5.80;;;;;;;;;;4923932;29;20201;-76
2023/06/20 04:16:20;;;;;;;6.97;6.30;;;;;;;;;;4922004;29;20646;-76
2023/06/20 04:18:46;;;;;;;6.63;6.03;;;;;;;;;;4933306;29;20185;-76
2023/06/20 04:21:12;;;;;;;7.37;6.70;;;;;;;;;;4931665;29;20664;-76
2023/06/20 04:23:38;;;;;;;8.40;7.60;;;;;;;;;;4928774;29;20218;-76
2023/06/20 04:26:07;;;;;;;8.33;7.40;;;;;;;;;;4935699;29;20186;-76
2023/06/20 04:28:33;;;;;;;7.53;6.83;;;;;;;;;;4905516;29;20214;-76
2023/06/20 04:31:01;;;;;;;7.70;7.00;;;;;;;;;;4922135;29;20201;-76
2023/06/20 04:33:27;;;;;;;7.77;6.93;;;;;;;;;;4922108;29;20206;-76
2023/06/20 04:35:57;;;;;;;7.80;7.00;;;;;;;;;;4922019;29;20726;-76
2023/06/20 04:38:24;;;;;;;7.77;7.07;;;;;;;;;;4909562;29;20190;-76
2023/06/20 04:40:50;;;;;;;7.50;6.90;;;;;;;;;;4922666;29;20218;-76
2023/06/20 04:43:17;;;;;;;6.83;6.23;;;;;;;;;;4919977;29;20214;-76
2023/06/20 04:45:43;;;;;;;7.37;6.73;;;;;;;;;;4905561;29;20202;-76
2023/06/20 04:48:10;;;;;;;7.77;7.07;;;;;;;;;;4924055;29;20635;-76
2023/06/20 04:50:37;;;;;;;7.70;7.10;;;;;;;;;;4920728;29;20625;-76
2023/06/20 04:53:03;;;;;;;8.10;7.30;;;;;;;;;;4920678;29;20219;-76
2023/06/20 04:55:29;;;;;;;7.33;6.63;;;;;;;;;;4920268;29;20217;-76
2023/06/20 04:57:56;;;;;;;8.30;7.50;;;;;;;;;;4921720;29;20204;-76
2023/06/20 05:00:22;;;;;;;8.23;7.53;;;;;;;;;;4922483;29;20182;-76
2023/06/20 05:02:49;;;;;;;8.20;7.40;;;;;;;;;;4922474;29;20209;-76
2023/06/20 05:05:16;;;;;;;8.27;7.53;;;;;;;;;;4919559;29;20650;-76
2023/06/20 05:07:44;;;;;;;8.57;7.77;;;;;;;;;;4920858;29;20265;-76
2023/06/20 05:10:10;;;;;;;8.30;7.50;;;;;;;;;;4922715;29;20252;-76
2023/06/20 05:12:37;;;;;;;9.80;8.90;;;;;;;;;;4921339;29;20202;-77
2023/06/20 05:15:03;;;;;;;9.13;8.00;;;;;;;;;;4922380;29;20559;-76
2023/06/20 05:17:30;;;;;;;9.80;8.67;;;;;;;;;;4921329;29;20182;-76
2023/06/20 05:19:57;;;;;;;9.50;8.60;;;;;;;;;;4924599;29;20190;-76
2023/06/20 05:22:23;;;;;;;8.67;7.87;;;;;;;;;;4924557;29;20293;-76
2023/06/20 05:24:49;;;;;;;8.50;7.60;;;;;;;;;;4919794;29;20694;-76
2023/06/20 05:27:15;;;;;;;8.40;7.63;;;;;;;;;;4928458;29;20192;-76
2023/06/20 05:29:42;;;;;;;8.53;7.60;;;;;;;;;;4923375;29;20185;-76
2023/06/20 05:32:08;;;;;;;8.40;7.50;;;;;;;;;;4924612;29;20951;-76
2023/06/20 05:34:34;;;;;;;8.13;7.33;;;;;;;;;;4923101;29;20666;-76
2023/06/20 05:37:00;;;;;;;10.20;7.30;;;;;;;;;;4916658;29;20210;-76
2023/06/20 05:39:28;;;;;;;8.20;7.50;;;;;;;;;;4931894;29;20208;-77
2023/06/20 05:41:56;;;;;;;8.53;7.27;;;;;;;;;;4928656;29;20245;-74
2023/06/20 05:44:22;;;;;;;8.07;7.27;;;;;;;;;;4932979;29;20214;-74
2023/06/20 05:46:48;;;;;;;8.47;7.10;;;;;;;;;;4927847;29;20531;-73
2023/06/20 05:49:15;;;;;;;9.63;7.93;;;;;;;;;;4928415;29;20197;-73
2023/06/20 05:51:44;;;;;;;7.87;7.03;;;;;;;;;;4931071;29;20239;-73
2023/06/20 05:54:10;;;;;;;7.57;6.90;;;;;;;;;;4926516;29;20198;-71
2023/06/20 05:56:36;;;;;;;8.73;7.63;;;;;;;;;;4933554;29;20265;-71
2023/06/20 05:59:04;;;;;;;7.67;6.97;;;;;;;;;;4932385;29;20216;-71
2023/06/20 06:01:30;;;;;;;8.73;7.83;;;;;;;;;;4931246;29;20252;-71
2023/06/20 06:03:56;;;;;;;8.77;7.40;;;;;;;;;;4932840;29;20221;-72
2023/06/20 06:06:24;;;;;;;11.20;8.37;;;;;;;;;;4927067;29;20265;-71
2023/06/20 06:08:53;;;;;;;9.17;8.17;;;;;;;;;;4934136;29;20257;-71
2023/06/20 06:11:19;;;;;;;10.30;9.03;;;;;;;;;;4914639;29;20582;-72
2023/06/20 06:13:45;;;;;;;9.53;8.73;;;;;;;;;;4930766;29;20694;-73
2023/06/20 06:16:13;;;;;;;10.00;8.77;;;;;;;;;;4932357;29;20189;-76
2023/06/20 06:18:39;;;;;;;9.03;8.23;;;;;;;;;;4932175;29;20178;-72
2023/06/20 06:21:05;;;;;;;10.00;9.00;;;;;;;;;;4929093;29;20182;-78
2023/06/20 06:23:32;;;;;;;9.73;8.87;;;;;;;;;;4933437;29;20297;-75
2023/06/20 06:25:58;;;;;;;10.93;9.93;;;;;;;;;;4932535;29;20537;-73
2023/06/20 06:28:26;;;;;;;10.70;9.80;;;;;;;;;;4933077;29;20178;-72
2023/06/20 06:30:52;;;;;;;10.10;9.20;;;;;;;;;;4929278;29;20252;-73
2023/06/20 06:33:19;;;;;;;10.20;9.23;;;;;;;;;;4923568;29;20206;-75
2023/06/20 06:35:46;;;;;;;10.67;9.77;;;;;;;;;;4927996;29;20265;-73
2023/06/20 06:38:12;;;;;;;9.83;8.93;;;;;;;;;;4936329;29;20548;-73
2023/06/20 06:40:38;;;;;;;10.87;9.87;;;;;;;;;;4931925;29;20209;-73
2023/06/20 06:43:05;;;;;;;10.93;10.00;;;;;;;;;;4933532;29;20267;-74
2023/06/20 06:45:33;;;;;;;10.13;9.33;;;;;;;;;;4912802;29;20189;-74
2023/06/20 06:47:59;;;;;;;11.60;10.47;;;;;;;;;;4931189;29;20205;-73
2023/06/20 06:50:25;;;;;;;11.87;10.80;;;;;;;;;;4932096;29;20629;-74
2023/06/20 06:52:51;;;;;;;12.03;11.00;;;;;;;;;;4934145;29;20822;-73
2023/06/20 06:55:18;;;;;;;11.47;10.27;;;;;;;;;;4933684;29;20194;-70
2023/06/20 06:57:44;;;;;;;11.17;10.07;;;;;;;;;;4935196;29;20216;-71
2023/06/20 07:00:11;;;;;;;11.17;10.27;;;;;;;;;;4925825;29;20186;-70
2023/06/20 07:02:38;;;;;;;11.13;10.23;;;;;;;;;;4933077;29;20205;-71
2023/06/20 07:05:05;;;;;;;10.53;9.63;;;;;;;;;;4930605;29;20578;-71
2023/06/20 07:07:31;;;;;;;11.20;10.10;;;;;;;;;;4929789;29;20205;-71
2023/06/20 07:09:57;;;;;;;10.67;9.67;;;;;;;;;;4927424;29;20557;-71
2023/06/20 07:12:23;;;;;;;11.57;10.47;;;;;;;;;;4932472;29;20205;-71
2023/06/20 07:14:52;;;;;;;11.37;10.33;;;;;;;;;;4928443;29;20307;-71
2023/06/20 07:17:18;;;;;;;10.67;9.57;;;;;;;;;;4930855;29;20197;-71
2023/06/20 07:19:44;;;;;;;11.30;10.30;;;;;;;;;;4929606;29;20190;-71
2023/06/20 07:22:10;;;;;;;11.70;10.70;;;;;;;;;;4925398;29;20641;-72
2023/06/20 07:24:37;;;;;;;10.80;9.90;;;;;;;;;;4930532;29;20300;-72
2023/06/20 07:27:03;;;;;;;11.73;10.73;;;;;;;;;;4935014;29;20245;-71
2023/06/20 07:29:31;;;;;;;11.27;10.17;;;;;;;;;;4926919;29;20186;-71
2023/06/20 07:31:57;;;;;;;10.07;9.17;;;;;;;;;;4930178;29;20717;-72
2023/06/20 07:34:23;;;;;;;11.40;10.40;;;;;;;;;;4932523;29;20198;-71
2023/06/20 07:36:49;;;;;;;10.43;9.53;;;;;;;;;;4934484;29;20187;-72
2023/06/20 07:39:15;;;;;;;10.20;9.30;;;;;;;;;;4931695;29;20218;-71
2023/06/20 07:41:42;;;;;;;10.80;9.90;;;;;;;;;;4926212;29;20186;-72
2023/06/20 07:44:10;;;;;;;11.70;10.50;;;;;;;;;;4924699;29;20207;-72
2023/06/20 07:46:38;;;;;;;10.80;9.67;;;;;;;;;;4930213;29;20187;-72
2023/06/20 07:49:04;;;;;;;10.17;9.33;;;;;;;;;;4930402;29;20190;-72
2023/06/20 07:51:33;;;;;;;10.80;9.80;;;;;;;;;;4930958;29;20178;-72
2023/06/20 07:53:59;;;;;;;11.03;10.00;;;;;;;;;;4930724;29;20220;-72
2023/06/20 07:56:25;;;;;;;11.60;10.50;;;;;;;;;;4934948;29;20195;-72
2023/06/20 07:58:51;;;;;;;11.17;10.07;;;;;;;;;;4933508;29;20724;-71
2023/06/20 08:01:18;;;;;;;11.50;10.30;;;;;;;;;;4933165;29;20241;-71
2023/06/20 08:03:44;;;;;;;11.13;10.13;;;;;;;;;;4931961;29;20215;-72
2023/06/20 08:06:11;;;;;;;11.47;10.40;;;;;;;;;;4927372;29;20280;-72
2023/06/20 08:08:37;;;;;;;11.10;10.10;;;;;;;;;;4933772;29;20240;-72
2023/06/20 08:11:04;;;;;;;10.97;9.87;;;;;;;;;;4931528;29;20182;-71
2023/06/20 08:13:30;;;;;;;10.80;9.87;;;;;;;;;;4931777;29;20216;-72
2023/06/20 08:15:56;;;;;;;11.40;10.30;;;;;;;;;;4926294;29;20182;-72
2023/06/20 08:18:23;;;;;;;11.50;10.40;;;;;;;;;;4927182;29;20224;-72
2023/06/20 08:20:49;;;;;;;10.83;9.83;;;;;;;;;;4934811;29;20191;-72
2023/06/20 08:23:23;;;;;;;11.63;10.53;;;;;;;;;;4933758;29;20360;-72
2023/06/20 08:25:49;;;;;;;10.60;9.70;;;;;;;;;;4926299;29;20187;-72
2023/06/20 08:28:15;;;;;;;11.00;10.00;;;;;;;;;;4932430;29;20185;-72
2023/06/20 08:30:41;;;;;;;11.20;10.00;;;;;;;;;;4927926;29;20197;-71
2023/06/20 08:33:07;;;;;;;11.13;10.13;;;;;;;;;;4924051;29;20215;-72
2023/06/20 08:35:33;;;;;;;11.03;10.00;;;;;;;;;;4928174;29;20190;-72
2023/06/20 08:37:59;;;;;;;10.20;9.23;;;;;;;;;;4921802;29;20190;-72
2023/06/20 08:40:25;;;;;;;10.17;9.27;;;;;;;;;;4933369;29;20201;-71
2023/06/20 08:42:55;;;;;;;10.57;9.60;;;;;;;;;;4925171;29;20213;-71
2023/06/20 08:45:22;;;;;;;11.83;10.73;;;;;;;;;;4931337;29;20190;-71
2023/06/20 08:47:48;;;;;;;10.97;9.97;;;;;;;;;;4931893;29;20182;-72
2023/06/20 08:50:14;;;;;;;11.20;10.20;;;;;;;;;;4932517;29;20918;-72
2023/06/20 08:52:47;;;;;;;11.53;10.43;;;;;;;;;;4927966;29;20211;-72
2023/06/20 08:55:16;;;;;;;11.10;10.07;;;;;;;;;;4934833;29;20194;-71
2023/06/20 08:57:45;;;;;;;10.53;9.63;;;;;;;;;;4933411;29;20190;-72
2023/06/20 09:00:20;;;;;;;10.67;9.73;;;;;;;;;;5067425;28;20598;-73
2023/06/20 09:02:47;;;;;;;11.47;10.47;;;;;;;;;;5061294;28;20193;-73
2023/06/20 09:05:14;;;;;;;9.97;8.90;;;;;;;;;;5057419;28;20203;-72
2023/06/20 09:07:41;;;;;;;11.20;10.20;;;;;;;;;;5068237;28;20180;-73
2023/06/20 09:10:08;;;;;;;10.83;9.83;;;;;;;;;;5065004;28;20341;-72
2023/06/20 09:12:47;;;;;;;10.93;9.83;;;;;;;;;;5067202;28;20214;-73
2023/06/20 09:15:14;;;;;;;10.60;9.50;;;;;;;;;;5062136;28;20189;-72
2023/06/20 09:17:41;;;;;;;11.17;10.00;;;;;;;;;;5057165;28;20218;-72
2023/06/20 09:20:08;;;;;;;9.93;9.07;;;;;;;;;;5062882;28;20601;-73
2023/06/20 09:22:37;;;;;;;10.63;9.50;;;;;;;;;;5063203;28;20203;-74
2023/06/20 09:25:03;;;;;;;10.93;9.97;;;;;;;;;;5058378;28;20229;-73
2023/06/20 09:27:36;;;;;;;11.47;9.90;;;;;;;;;;5066396;28;20695;-73
2023/06/20 09:30:04;;;;;;;9.83;9.00;;;;;;;;;;5065251;28;20536;-73
2023/06/20 09:32:35;;;;;;;9.83;9.03;;;;;;;;;;5066841;28;20211;-73
2023/06/20 09:35:02;;;;;;;10.27;9.27;;;;;;;;;;5060971;28;20196;-73
2023/06/20 09:37:35;;;;;;;9.43;8.63;;;;;;;;;;5063686;28;20208;-72
2023/06/20 09:40:09;;;;;;;10.23;9.20;;;;;;;;;;5060704;28;20215;-73
2023/06/20 09:42:36;;;;;;;10.30;9.40;;;;;;;;;;5066292;28;20192;-72
2023/06/20 09:45:02;;;;;;;10.70;9.80;;;;;;;;;;5067558;28;20640;-73
2023/06/20 09:47:29;;;;;;;10.90;9.90;;;;;;;;;;5067234;28;20657;-72
2023/06/20 09:49:57;;;;;;;10.00;9.20;;;;;;;;;;5062427;28;20185;-73
2023/06/20 09:52:26;;;;;;;10.03;9.13;;;;;;;;;;5059044;28;20795;-72
2023/06/20 09:55:02;;;;;;;10.50;9.50;;;;;;;;;;5067291;28;20178;-72
2023/06/20 09:57:34;;;;;;;10.30;9.40;;;;;;;;;;5065927;28;20280;-73
2023/06/20 10:00:00;;;;;;;10.30;9.30;;;;;;;;;;5064671;28;20572;-73
2023/06/20 10:02:28;;;;;;;10.73;9.63;;;;;;;;;;5066902;28;20204;-73
2023/06/20 10:04:55;;;;;;;9.83;8.83;;;;;;;;;;5066187;28;20651;-74
2023/06/20 10:07:22;;;;;;;10.00;9.10;;;;;;;;;;5059040;28;20191;-73
2023/06/20 10:09:49;;;;;;;9.77;8.97;;;;;;;;;;5061892;28;20178;-73
2023/06/20 10:12:16;;;;;;;9.80;8.90;;;;;;;;;;5046276;28;20203;-73
2023/06/20 10:14:42;;;;;;;9.30;8.40;;;;;;;;;;5044076;28;20189;-73
2023/06/20 10:17:09;;;;;;;9.00;8.27;;;;;;;;;;5052384;28;20226;-73
2023/06/20 10:19:51;;;;;;;9.43;8.43;;;;;;;;;;5043347;28;20319;-73
2023/06/20 10:22:33;;;;;;;9.10;8.23;;;;;;;;;;5040932;28;20718;-73
2023/06/20 10:25:18;;;;;;;10.30;9.37;;;;;;;;;;5047592;28;20673;-72
2023/06/20 10:27:54;;;;;;;9.10;8.30;;;;;;;;;;5051848;28;20267;-73
2023/06/20 10:30:38;;;;;;;9.37;8.47;;;;;;;;;;5048338;28;20181;-73
2023/06/20 10:33:11;;;;;;;8.97;8.07;;;;;;;;;;5044217;28;20201;-73
2023/06/20 10:35:50;;;;;;;8.67;7.77;;;;;;;;;;5048736;28;20189;-73
2023/06/20 10:38:17;;;;;;;8.20;7.50;;;;;;;;;;5046534;28;20755;-73
2023/06/20 10:40:43;;;;;;;8.90;8.10;;;;;;;;;;5043778;28;20212;-73
2023/06/20 10:43:15;;;;;;;8.93;8.03;;;;;;;;;;5051070;28;20204;-73
2023/06/20 10:45:56;;;;;;;8.60;7.87;;;;;;;;;;5047092;28;20183;-72
2023/06/20 10:48:23;;;;;;;8.53;7.83;;;;;;;;;;5038424;28;20269;-73
2023/06/20 10:50:49;;;;;;;8.60;7.90;;;;;;;;;;5047002;28;20182;-73
2023/06/20 10:53:15;;;;;;;8.77;8.03;;;;;;;;;;5051481;28;20206;-73
2023/06/20 10:55:41;;;;;;;9.23;8.27;;;;;;;;;;5048228;28;20186;-73
2023/06/20 10:58:08;;;;;;;9.17;8.27;;;;;;;;;;5041052;28;20215;-73
2023/06/20 11:00:34;;;;;;;8.97;8.27;;;;;;;;;;5039396;28;20187;-77
2023/06/20 11:03:00;;;;;;;8.90;7.80;;;;;;;;;;5044376;28;20207;-75
2023/06/20 11:05:28;;;;;;;8.80;8.00;;;;;;;;;;5045579;28;20191;-77
2023/06/20 11:07:55;;;;;;;8.50;7.57;;;;;;;;;;5043642;28;20165;-76
2023/06/20 11:10:22;;;;;;;8.37;7.60;;;;;;;;;;5049456;28;20283;-75
2023/06/20 11:12:48;;;;;;;8.60;7.83;;;;;;;;;;5050582;28;20274;-78
2023/06/20 11:15:21;;;;;;;8.57;7.97;;;;;;;;;;5051315;28;20250;-75
2023/06/20 11:17:48;;;;;;;8.13;7.33;;;;;;;;;;5042701;28;20182;-74
2023/06/20 11:20:16;;;;;;;9.23;6.73;;;;;;;;;;5041489;28;20226;-75
2023/06/20 11:22:42;;;;;;;7.70;7.00;;;;;;;;;;5038198;28;20200;-75
2023/06/20 11:25:09;;;;;;;7.60;6.90;;;;;;;;;;5052305;28;20183;-74
2023/06/20 11:27:36;;;;;;;6.73;6.17;;;;;;;;;;5050177;28;20183;-75
2023/06/20 11:30:02;;;;;;;6.63;6.13;;;;;;;;;;5040582;28;21009;-75
2023/06/20 11:32:28;;;;;;;6.63;6.00;;;;;;;;;;5049196;28;20255;-75
2023/06/20 11:34:59;;;;;;;6.53;5.93;;;;;;;;;;5041021;28;20741;-74
2023/06/20 11:37:25;;;;;;;6.23;5.67;;;;;;;;;;5046169;28;20226;-75
2023/06/20 11:39:52;;;;;;;6.37;5.77;;;;;;;;;;5040640;28;20220;-75
2023/06/20 11:42:19;;;;;;;7.13;6.40;;;;;;;;;;5043460;28;20194;-75
2023/06/20 11:44:45;;;;;;;6.63;5.87;;;;;;;;;;5044995;28;20584;-74
2023/06/20 11:47:11;;;;;;;6.60;6.10;;;;;;;;;;5051930;28;20186;-75
2023/06/20 11:49:42;;;;;;;6.30;5.70;;;;;;;;;;5052223;28;20181;-75
2023/06/20 11:52:09;;;;;;;6.67;6.07;;;;;;;;;;5051382;28;20403;-75
2023/06/20 11:54:48;;;;;;;6.17;5.67;;;;;;;;;;5047496;28;20184;-75
2023/06/20 11:57:24;;;;;;;7.20;6.60;;;;;;;;;;5050721;28;20675;-75
2023/06/20 11:59:50;;;;;;;6.43;5.93;;;;;;;;;;5047842;28;20296;-75
2023/06/20 12:02:16;;;;;;;6.17;5.67;;;;;;;;;;5051499;28;20767;-75
2023/06/20 12:04:43;;;;;;;6.63;5.93;;;;;;;;;;5051078;28;20214;-75
2023/06/20 12:07:10;;;;;;;6.00;5.50;;;;;;;;;;5051752;28;20683;-73
2023/06/20 12:09:42;;;;;;;5.70;5.30;;;;;;;;;;5048352;28;20192;-73
2023/06/20 12:12:09;;;;;;;6.13;5.43;;;;;;;;;;5042470;28;20216;-73
2023/06/20 12:14:37;;;;;;;5.50;5.00;;;;;;;;;;5039834;28;20667;-74
2023/06/20 12:17:04;;;;;;;5.80;5.40;;;;;;;;;;5044128;28;20184;-73
2023/06/20 12:19:31;;;;;;;5.57;5.00;;;;;;;;;;5034825;28;20683;-73
2023/06/20 12:21:57;;;;;;;5.20;4.80;;;;;;;;;;5041512;28;20267;-73
2023/06/20 12:24:27;;;;;;;5.07;4.57;;;;;;;;;;5038667;28;20655;-73
2023/06/20 12:26:56;;;;;;;5.17;4.67;;;;;;;;;;5036172;28;20256;-73
2023/06/20 12:29:23;;;;;;;4.70;4.30;;;;;;;;;;5040856;28;20283;-74
2023/06/20 12:31:49;;;;;;;5.23;4.83;;;;;;;;;;5038677;28;20220;-73
2023/06/20 12:34:15;;;;;;;5.10;4.40;;;;;;;;;;5046140;28;20186;-73
2023/06/20 12:36:41;;;;;;;4.77;4.23;;;;;;;;;;5047829;28;20186;-78
2023/06/20 12:39:08;;;;;;;5.27;4.33;;;;;;;;;;5047413;28;20215;-77
2023/06/20 12:41:34;;;;;;;4.60;4.20;;;;;;;;;;5049393;28;20320;-78
2023/06/20 12:44:02;;;;;;;4.60;4.30;;;;;;;;;;5049795;28;20202;-78
2023/06/20 12:46:28;;;;;;;4.70;4.20;;;;;;;;;;5046285;28;20264;-77
2023/06/20 12:48:55;;;;;;;4.40;4.00;;;;;;;;;;5048800;28;20192;-78
2023/06/20 12:51:21;;;;;;;4.40;4.00;;;;;;;;;;5044823;28;20275;-78
2023/06/20 12:53:49;;;;;;;4.10;3.80;;;;;;;;;;5050231;28;20253;-78
2023/06/20 12:56:17;;;;;;;4.00;3.70;;;;;;;;;;5038001;28;20191;-78
2023/06/20 12:58:43;;;;;;;3.97;3.60;;;;;;;;;;5039056;28;20240;-78
2023/06/20 13:01:09;;;;;;;4.37;3.90;;;;;;;;;;5050427;28;20187;-78
2023/06/20 13:03:36;;;;;;;6.25;4.00;;;;;;;;;;5049479;28;20230;-78
2023/06/20 13:06:02;;;;;;;4.30;3.90;;;;;;;;;;5051081;28;20185;-78
2023/06/20 13:08:28;;;;;;;5.13;3.50;;;;;;;;;;5047024;28;20525;-78
2023/06/20 13:10:54;;;;;;;4.28;3.95;;;;;;;;;;5043416;28;20213;-78
2023/06/20 13:13:20;;;;;;;4.93;3.88;;;;;;;;;;5050469;28;20229;-76
2023/06/20 13:15:46;;;;;;;4.05;3.65;;;;;;;;;;5050661;28;20809;-76
2023/06/20 13:18:12;;;;;;;5.47;3.60;;;;;;;;;;5050981;28;20186;-76
2023/06/20 13:20:39;;;;;;;4.57;4.13;;;;;;;;;;5043221;28;20191;-76
2023/06/20 13:23:05;;;;;;;4.85;3.95;;;;;;;;;;5050206;28;20194;-76
2023/06/20 13:25:31;;;;;;;3.97;3.63;;;;;;;;;;5050685;28;20182;-76
2023/06/20 13:27:57;;;;;;;5.57;3.35;;;;;;;;;;5046365;28;20268;-76
2023/06/20 13:30:24;;;;;;;4.05;3.75;;;;;;;;;;5045975;28;20197;-76
2023/06/20 13:32:50;;;;;;;4.40;4.10;;;;;;;;;;5050249;28;20577;-76
2023/06/20 13:35:19;;;;;;;4.95;4.45;;;;;;;;;;5049791;28;20187;-76
2023/06/20 13:37:45;;;;;;;5.05;4.55;;;;;;;;;;5050498;28;20218;-76
2023/06/20 13:40:12;;;;;;;5.47;4.57;;;;;;;;;;5045099;28;20749;-76
2023/06/20 13:42:44;;;;;;;4.75;4.35;;;;;;;;;;5044790;28;20198;-76
2023/06/20 13:45:13;;;;;;;5.13;4.00;;;;;;;;;;5049634;28;20185;-76
2023/06/20 13:47:40;;;;;;;4.80;4.40;;;;;;;;;;5054397;28;20175;-76
2023/06/20 13:50:07;;;;;;;4.72;4.30;;;;;;;;;;5048652;28;20185;-76
2023/06/20 13:52:33;;;;;;;4.97;4.50;;;;;;;;;;5039291;28;20205;-76
2023/06/20 13:55:00;;;;;;;5.00;4.20;;;;;;;;;;5051581;28;20779;-76
2023/06/20 13:57:26;;;;;;;5.57;5.07;;;;;;;;;;5052866;28;20184;-76
2023/06/20 13:59:52;;;;;;;4.38;4.00;;;;;;;;;;5051533;28;20340;-76
2023/06/20 14:02:19;;;;;;;5.18;4.75;;;;;;;;;;5052516;28;20208;-76
2023/06/20 14:04:45;;;;;;;7.68;4.80;;;;;;;;;;5053299;28;20185;-76
2023/06/20 14:07:11;;;;;;;4.90;4.43;;;;;;;;;;5050160;28;20196;-76
2023/06/20 14:09:37;;;;;;;4.93;4.53;;;;;;;;;;5029500;28;20188;-76
2023/06/20 14:12:04;;;;;;;4.88;4.47;;;;;;;;;;5047052;28;20205;-76
2023/06/20 14:14:30;;;;;;;5.20;4.70;;;;;;;;;;5052872;28;20181;-76
2023/06/20 14:16:56;;;;;;;4.90;4.50;;;;;;;;;;5052930;28;20195;-76
2023/06/20 14:19:23;;;;;;;4.88;4.57;;;;;;;;;;5044659;28;20939;-76
2023/06/20 14:21:49;;;;;;;5.38;4.80;;;;;;;;;;5051473;28;20649;-76
2023/06/20 14:24:15;;;;;;;4.93;4.43;;;;;;;;;;5053774;28;20179;-76
2023/06/20 14:26:41;;;;;;;5.45;5.05;;;;;;;;;;5049834;28;20197;-76
2023/06/20 14:29:07;;;;;;;5.45;5.05;;;;;;;;;;5044880;28;20217;-76
2023/06/20 14:31:34;;;;;;;6.03;5.05;;;;;;;;;;5053093;28;20188;-76
2023/06/20 14:34:00;;;;;;;5.13;4.55;;;;;;;;;;5053770;28;20335;-76
2023/06/20 14:36:28;;;;;;;4.93;4.53;;;;;;;;;;5050513;28;20200;-76
2023/06/20 14:38:54;;;;;;;5.78;5.20;;;;;;;;;;5048079;28;20547;-76